F/V Roger Christian3 — FUFL — position and weather

sailwx.info

Track history (hours):
 
Tides and Currents Weather Stations Pressure Air Temp Water Temp Dewpoint Dewpoint Depression Visibility Wind Speed Wind Dir Waves Ship Positions

F/V Roger Christian3

Last reported at 2016-Feb-04 13:04 UTC. Time now 2016-Feb-08 06:11 UTC.
Position N 43°20' E 004°00'.

Length 24 m; draft 4 m.

Type: Fishing. MMSI: 228173800.

Date/timePositionNaut miles runAvg speedWind from/ knotsBaromVisibWave heightAir tempDewpointWater temp
2016-Feb-04 13:04N 43°20' E 004°00'2 4.1
2016-Feb-04 12:29N 43°19' E 004°03'2 1.9
2016-Feb-04 11:33N 43°17' E 004°05'4 4.0
2016-Feb-04 10:33N 43°14' E 004°09'4 3.9
2016-Feb-04 09:33N 43°13' E 004°14'4 3.9
2016-Feb-04 08:33N 43°12' E 004°19'1 0.7
2016-Feb-04 07:33N 43°13' E 004°19'4 4.3
2016-Feb-04 06:33N 43°15' E 004°14'4 4.2
2016-Feb-04 05:33N 43°17' E 004°09'8 0.5
2016-Feb-03 14:09N 43°15' E 003°58'23 3.9
2016-Feb-03 08:14N 42°59' E 004°21'38 2.2
2016-Feb-02 15:21N 43°24' E 003°42'10 9.8
2016-Feb-02 14:23N 43°16' E 003°49'3 3.3
2016-Feb-02 13:33N 43°14' E 003°52'4 4.3
2016-Feb-02 12:33N 43°11' E 003°56'  
2016-Jan-29 14:33N 43°18' E 003°55'4 4.3
2016-Jan-29 13:33N 43°15' E 003°60'4 4.3
2016-Jan-29 12:33N 43°13' E 004°05'4 4.1
2016-Jan-29 11:32N 43°10' E 004°09'  
2016-Jan-26 14:12N 43°01' E 003°03'1 0.7
2016-Jan-26 13:22N 43°01' E 003°03'1110.4
2016-Jan-26 12:16N 42°55' E 003°16'5 0.8
2016-Jan-26 06:33N 42°58' E 003°20'1110.0
2016-Jan-26 05:28N 43°00' E 003°06'  
Track history (hours):
 
Tides and Currents Weather Stations Pressure Air Temp Water Temp Dewpoint Dewpoint Depression Visibility Wind Speed Wind Dir Waves Ship Positions

F/V Roger Christian3

Last reported at 2016-Feb-04 13:04 UTC. Time now 2016-Feb-08 06:11 UTC.
Position N 43°20' E 004°00'.

Length 24 m; draft 4 m.

Type: Fishing. MMSI: 228173800.

Date/timePositionNaut miles runAvg speedWind from/ knotsBaromVisibWave heightAir tempDewpointWater temp
2016-Feb-04 13:04N 43°20' E 004°00'2 4.1
2016-Feb-04 12:29N 43°19' E 004°03'2 1.9
2016-Feb-04 11:33N 43°17' E 004°05'4 4.0
2016-Feb-04 10:33N 43°14' E 004°09'4 3.9
2016-Feb-04 09:33N 43°13' E 004°14'4 3.9
2016-Feb-04 08:33N 43°12' E 004°19'1 0.7
2016-Feb-04 07:33N 43°13' E 004°19'4 4.3
2016-Feb-04 06:33N 43°15' E 004°14'4 4.2
2016-Feb-04 05:33N 43°17' E 004°09'8 0.5
2016-Feb-03 14:09N 43°15' E 003°58'23 3.9
2016-Feb-03 08:14N 42°59' E 004°21'38 2.2
2016-Feb-02 15:21N 43°24' E 003°42'10 9.8
2016-Feb-02 14:23N 43°16' E 003°49'3 3.3
2016-Feb-02 13:33N 43°14' E 003°52'4 4.3
2016-Feb-02 12:33N 43°11' E 003°56'  
2016-Jan-29 14:33N 43°18' E 003°55'4 4.3
2016-Jan-29 13:33N 43°15' E 003°60'4 4.3
2016-Jan-29 12:33N 43°13' E 004°05'4 4.1
2016-Jan-29 11:32N 43°10' E 004°09'  
2016-Jan-26 14:12N 43°01' E 003°03'1 0.7
2016-Jan-26 13:22N 43°01' E 003°03'1110.4
2016-Jan-26 12:16N 42°55' E 003°16'5 0.8
2016-Jan-26 06:33N 42°58' E 003°20'1110.0
2016-Jan-26 05:28N 43°00' E 003°06'  

Dump ship's entire track history